createdAt,value
2019-04-20T00:01:31.998Z,6.17
2019-04-20T00:03:57.377Z,6.87
2019-04-20T00:06:27.112Z,4.77
2019-04-20T00:09:01.829Z,8.03
2019-04-20T00:11:28.340Z,4.90
2019-04-20T00:14:03.257Z,5.60
2019-04-20T00:16:25.176Z,4.90
2019-04-20T00:18:58.216Z,6.13
2019-04-20T00:21:46.989Z,4.50
2019-04-20T00:24:27.291Z,8.27
2019-04-20T00:27:16.214Z,6.03
2019-04-20T00:29:47.824Z,5.87
2019-04-20T00:32:06.316Z,7.60
2019-04-20T00:34:31.450Z,5.27
2019-04-20T00:36:56.145Z,7.33
2019-04-20T00:39:25.764Z,5.03
2019-04-20T00:42:01.095Z,6.13
2019-04-20T00:44:30.386Z,8.13
2019-04-20T00:47:08.465Z,7.40
2019-04-20T00:49:38.896Z,5.10
2019-04-20T00:54:30.555Z,7.90
2019-04-20T00:57:09.274Z,5.07
2019-04-20T00:59:51.764Z,7.30
2019-04-20T01:02:18.017Z,6.30
2019-04-20T01:04:47.936Z,7.63
2019-04-20T01:07:39.462Z,6.77
2019-04-20T01:10:04.999Z,8.00
2019-04-20T01:12:36.873Z,7.00
2019-04-20T01:15:07.809Z,7.10
2019-04-20T01:17:37.941Z,7.27
2019-04-20T01:20:05.181Z,6.80
2019-04-20T01:22:40.273Z,5.83
2019-04-20T01:25:09.837Z,6.80
2019-04-20T01:27:50.118Z,7.97
2019-04-20T01:30:14.739Z,9.07
2019-04-20T01:32:55.165Z,8.50
2019-04-20T01:35:29.019Z,6.30
2019-04-20T01:37:57.500Z,7.60
2019-04-20T01:40:11.373Z,7.03
2019-04-20T01:42:42.469Z,6.63
2019-04-20T01:45:18.029Z,6.50
2019-04-20T01:47:47.199Z,10.90
2019-04-20T01:50:20.309Z,7.83
2019-04-20T01:52:55.019Z,9.23
2019-04-20T01:55:34.637Z,7.87
2019-04-20T01:58:11.889Z,7.57
2019-04-20T02:00:39.910Z,8.03
2019-04-20T02:03:31.315Z,6.07
2019-04-20T02:06:04.487Z,7.30
2019-04-20T02:08:29.869Z,8.47
2019-04-20T02:11:01.921Z,7.63
2019-04-20T02:13:36.134Z,8.27
2019-04-20T02:16:09.766Z,7.33
2019-04-20T02:18:40.100Z,9.23
2019-04-20T02:21:15.197Z,7.83
2019-04-20T02:23:38.472Z,9.67
2019-04-20T02:26:00.774Z,8.67
2019-04-20T02:28:56.867Z,9.67
2019-04-20T02:31:55.371Z,7.60
2019-04-20T02:34:06.968Z,9.57
2019-04-20T02:36:53.225Z,6.67
2019-04-20T02:42:05.429Z,8.03
2019-04-20T02:44:42.627Z,7.33
2019-04-20T02:46:55.842Z,8.10
2019-04-20T02:51:52.711Z,9.13
2019-04-20T02:54:26.454Z,9.20
2019-04-20T03:01:45.536Z,8.00
2019-04-20T03:03:58.234Z,8.83
2019-04-20T03:06:36.576Z,8.70
2019-04-20T03:09:20.141Z,9.37
2019-04-20T03:11:58.471Z,10.50
2019-04-20T03:14:16.358Z,11.53
2019-04-20T03:16:43.678Z,11.00
2019-04-20T03:19:11.788Z,9.40
2019-04-20T03:21:54.188Z,13.97
2019-04-20T03:24:26.834Z,11.30
2019-04-20T03:27:20.904Z,10.10
2019-04-20T03:30:22.548Z,10.83
2019-04-20T03:33:02.269Z,13.60
2019-04-20T03:35:19.992Z,9.17
2019-04-20T03:37:49.816Z,10.63
2019-04-20T03:40:09.894Z,12.10
2019-04-20T03:42:26.729Z,10.57
2019-04-20T03:45:00.525Z,13.27
2019-04-20T03:47:36.977Z,13.53
2019-04-20T03:50:18.541Z,13.53
2019-04-20T03:52:57.755Z,10.93
2019-04-20T03:55:51.248Z,12.03
2019-04-20T03:58:24.439Z,13.23
2019-04-20T04:01:03.888Z,11.10
2019-04-20T04:03:53.419Z,12.77
2019-04-20T04:06:16.084Z,14.13
2019-04-20T04:08:39.529Z,12.83
2019-04-20T04:11:26.212Z,13.63
2019-04-20T04:13:37.776Z,15.27
2019-04-20T04:16:10.181Z,12.27
2019-04-20T04:18:40.988Z,15.73
2019-04-20T04:21:12.654Z,16.57
2019-04-20T04:23:56.150Z,21.03
2019-04-20T04:26:27.532Z,19.33
2019-04-20T04:28:56.328Z,17.87
2019-04-20T04:31:33.624Z,18.97
2019-04-20T04:34:12.480Z,15.07
2019-04-20T04:36:26.139Z,15.70
2019-04-20T04:39:06.020Z,14.40
2019-04-20T04:41:31.093Z,15.30
2019-04-20T04:44:00.167Z,16.00
2019-04-20T04:46:14.477Z,15.17
2019-04-20T04:48:48.278Z,14.33
2019-04-20T04:51:21.193Z,15.90
2019-04-20T04:53:55.116Z,18.70
2019-04-20T04:56:22.174Z,15.17
2019-04-20T04:58:49.600Z,17.63
2019-04-20T05:01:22.602Z,17.10
2019-04-20T05:04:19.233Z,19.20
2019-04-20T05:06:33.031Z,16.73
2019-04-20T05:08:54.844Z,17.00
2019-04-20T05:11:21.702Z,20.93
2019-04-20T05:13:56.628Z,25.87
2019-04-20T05:16:42.151Z,24.83
2019-04-20T05:19:15.898Z,26.50
2019-04-20T05:22:03.941Z,26.03
2019-04-20T05:24:48.159Z,25.70
2019-04-20T05:27:51.275Z,25.47
2019-04-20T05:30:01.524Z,26.47
2019-04-20T05:32:39.677Z,26.07
2019-04-20T05:35:23.767Z,28.20
2019-04-20T05:40:22.714Z,21.87
2019-04-20T05:43:01.907Z,20.43
2019-04-20T05:45:24.907Z,19.37
2019-04-20T05:47:52.439Z,19.97
2019-04-20T05:50:31.557Z,19.87
2019-04-20T05:53:07.724Z,18.37
2019-04-20T05:55:35.787Z,16.80
2019-04-20T05:58:02.102Z,14.67
2019-04-20T06:00:37.452Z,15.50
2019-04-20T06:03:02.356Z,17.57
2019-04-20T06:05:38.560Z,16.87
2019-04-20T06:08:05.464Z,17.50
2019-04-20T06:10:40.204Z,17.37
2019-04-20T06:13:00.256Z,17.10
2019-04-20T06:15:46.830Z,18.20
2019-04-20T06:18:28.906Z,15.37
2019-04-20T06:21:12.105Z,15.57
2019-04-20T06:23:56.413Z,16.70
2019-04-20T06:26:43.466Z,15.10
2019-04-20T06:28:50.832Z,14.00
2019-04-20T06:31:42.171Z,13.03
2019-04-20T06:34:33.118Z,12.80
2019-04-20T06:36:57.332Z,12.83
2019-04-20T06:42:10.791Z,21.83
2019-04-20T06:52:23.370Z,15.77
2019-04-20T06:55:03.207Z,14.77
2019-04-20T06:57:34.603Z,15.37
2019-04-20T07:00:08.574Z,13.00
2019-04-20T07:02:35.953Z,18.70
2019-04-20T07:05:05.357Z,15.10
2019-04-20T07:07:33.891Z,13.13
2019-04-20T07:12:32.783Z,15.20
2019-04-20T07:14:55.558Z,14.37
2019-04-20T07:20:42.738Z,11.90
2019-04-20T07:25:40.298Z,12.53
2019-04-20T07:28:09.806Z,12.97
2019-04-20T07:30:35.691Z,13.10
2019-04-20T07:33:04.302Z,16.07
2019-04-20T07:35:38.784Z,11.70
2019-04-20T07:38:23.407Z,12.07
2019-04-20T07:40:35.639Z,11.43
2019-04-20T07:43:02.893Z,11.47
2019-04-20T07:45:33.194Z,14.97
2019-04-20T07:48:13.665Z,11.83
2019-04-20T07:50:32.481Z,10.80
2019-04-20T07:53:01.535Z,10.90
2019-04-20T07:55:46.046Z,11.67
2019-04-20T07:58:01.318Z,14.37
2019-04-20T08:00:51.063Z,11.63
2019-04-20T08:03:44.213Z,15.10
2019-04-20T08:06:16.496Z,11.87
2019-04-20T08:08:56.068Z,14.73
2019-04-20T08:11:22.884Z,11.37
2019-04-20T08:14:02.010Z,12.63
2019-04-20T08:16:40.850Z,12.87
2019-04-20T08:18:53.789Z,10.67
2019-04-20T08:21:32.702Z,13.90
2019-04-20T08:23:58.145Z,9.93
2019-04-20T08:26:16.231Z,13.03
2019-04-20T08:28:52.845Z,12.07
2019-04-20T08:31:50.478Z,11.43
2019-04-20T08:34:32.447Z,15.83
2019-04-20T08:36:56.628Z,11.50
2019-04-20T08:39:37.469Z,10.53
2019-04-20T08:42:01.295Z,11.80
2019-04-20T08:44:51.453Z,11.90
2019-04-20T08:47:10.284Z,12.90
2019-04-20T08:49:37.820Z,10.37
2019-04-20T08:54:28.341Z,8.53
2019-04-20T08:56:45.169Z,11.33
2019-04-20T08:59:09.518Z,9.43
2019-04-20T09:01:39.406Z,9.80
2019-04-20T09:04:17.772Z,9.73
2019-04-20T09:06:52.205Z,9.97
2019-04-20T09:09:37.772Z,8.87
2019-04-20T09:12:16.815Z,8.67
2019-04-20T09:14:21.393Z,10.27
2019-04-20T09:16:59.780Z,8.97
2019-04-20T09:19:37.951Z,9.23
2019-04-20T09:22:24.452Z,8.73
2019-04-20T09:25:14.475Z,8.43
2019-04-20T09:27:28.501Z,10.67
2019-04-20T09:30:00.198Z,10.47
2019-04-20T09:32:35.710Z,11.40
2019-04-20T09:35:07.806Z,9.03
2019-04-20T09:37:47.314Z,9.20
2019-04-20T09:40:45.466Z,10.27
2019-04-20T09:43:02.296Z,10.73
2019-04-20T09:45:56.424Z,8.53
2019-04-20T09:48:31.762Z,8.43
2019-04-20T09:51:15.025Z,7.03
2019-04-20T09:53:35.703Z,7.50
2019-04-20T09:56:08.840Z,7.00
2019-04-20T09:58:37.879Z,7.57
2019-04-20T10:01:08.357Z,7.07
2019-04-20T10:03:24.763Z,7.00
2019-04-20T10:05:53.649Z,6.30
2019-04-20T10:08:22.246Z,6.90
2019-04-20T10:10:51.188Z,7.70
2019-04-20T10:13:22.574Z,5.40
2019-04-20T10:15:51.278Z,6.67
2019-04-20T10:18:19.913Z,7.90
2019-04-20T10:20:47.789Z,7.17
2019-04-20T10:23:16.491Z,6.07
2019-04-20T10:25:44.747Z,7.10
2019-04-20T10:28:13.863Z,6.43
2019-04-20T10:30:41.733Z,6.08
2019-04-20T10:33:10.023Z,6.97
2019-04-20T10:35:37.403Z,5.90
2019-04-20T10:38:09.585Z,5.70
2019-04-20T10:40:46.144Z,4.97
2019-04-20T10:43:08.075Z,5.10
2019-04-20T10:45:37.038Z,5.50
2019-04-20T10:48:05.486Z,5.92
2019-04-20T10:50:34.760Z,6.30
2019-04-20T10:53:03.687Z,5.20
2019-04-20T10:55:31.511Z,7.70
2019-04-20T10:58:01.712Z,5.80
2019-04-20T11:00:41.920Z,7.45
2019-04-20T11:03:11.678Z,7.05
2019-04-20T11:05:40.573Z,5.67
2019-04-20T11:08:08.575Z,6.50
2019-04-20T11:10:52.054Z,6.95
2019-04-20T11:13:07.562Z,7.05
2019-04-20T11:15:36.378Z,5.78
2019-04-20T11:18:05.049Z,4.97
2019-04-20T11:20:35.203Z,5.35
2019-04-20T11:23:06.603Z,4.72
2019-04-20T11:25:35.324Z,4.90
2019-04-20T11:28:04.033Z,6.08
2019-04-20T11:30:32.424Z,6.65
2019-04-20T11:33:02.325Z,5.22
2019-04-20T11:35:35.999Z,4.90
2019-04-20T11:38:01.376Z,4.20
2019-04-20T11:40:29.321Z,6.15
2019-04-20T11:42:57.504Z,6.75
2019-04-20T11:45:26.782Z,7.53
2019-04-20T11:47:55.757Z,7.35
2019-04-20T11:50:25.199Z,5.97
2019-04-20T11:52:53.214Z,5.75
2019-04-20T11:55:22.374Z,5.95
2019-04-20T11:57:51.356Z,6.93
2019-04-20T12:00:25.619Z,6.65
2019-04-20T12:03:23.060Z,7.17
2019-04-20T12:05:46.619Z,6.50
2019-04-20T12:08:13.189Z,7.70
2019-04-20T12:10:43.615Z,6.47
2019-04-20T12:13:14.663Z,6.60
2019-04-20T12:15:43.509Z,5.37
2019-04-20T12:18:11.661Z,8.80
2019-04-20T12:20:40.836Z,8.37
2019-04-20T12:23:10.435Z,7.03
2019-04-20T12:25:40.881Z,8.98
2019-04-20T12:28:11.580Z,6.55
2019-04-20T12:30:40.089Z,6.95
2019-04-20T12:33:09.166Z,9.10
2019-04-20T12:35:38.389Z,6.15
2019-04-20T12:38:07.434Z,6.03
2019-04-20T12:40:35.818Z,7.90
2019-04-20T12:43:04.776Z,6.83
2019-04-20T12:45:33.552Z,6.20
2019-04-20T12:48:01.810Z,5.78
2019-04-20T12:50:29.884Z,6.12
2019-04-20T12:52:58.611Z,6.12
2019-04-20T12:55:28.350Z,6.72
2019-04-20T12:57:56.959Z,6.17
2019-04-20T13:00:41.455Z,6.83
2019-04-20T13:03:13.746Z,8.53
2019-04-20T13:05:43.625Z,8.10
2019-04-20T13:08:13.794Z,7.53
2019-04-20T13:10:45.033Z,5.50
2019-04-20T13:13:36.558Z,8.15
2019-04-20T13:16:16.344Z,8.78
2019-04-20T13:18:50.898Z,7.00
2019-04-20T13:21:19.090Z,8.75
2019-04-20T13:23:47.375Z,6.67
2019-04-20T13:26:15.675Z,8.48
2019-04-20T13:28:44.040Z,7.08
2019-04-20T13:31:13.537Z,6.35
2019-04-20T13:33:43.214Z,5.60
2019-04-20T13:36:12.492Z,6.47
2019-04-20T13:38:40.456Z,6.47
2019-04-20T13:41:09.505Z,10.60
2019-04-20T13:43:39.649Z,9.40
2019-04-20T13:46:09.061Z,7.25
2019-04-20T13:48:39.050Z,18.62
2019-04-20T13:51:07.851Z,7.47
2019-04-20T13:53:37.148Z,8.58
2019-04-20T13:56:05.792Z,6.72
2019-04-20T13:58:51.886Z,8.48
2019-04-20T14:01:41.136Z,8.35
2019-04-20T14:04:16.549Z,6.90
2019-04-20T14:06:45.670Z,8.10
2019-04-20T14:09:13.550Z,9.05
2019-04-20T14:11:43.326Z,10.72
2019-04-20T14:14:13.110Z,9.60
2019-04-20T14:16:41.462Z,11.03
2019-04-20T14:19:09.329Z,11.28
2019-04-20T14:21:38.445Z,8.18
2019-04-20T14:24:06.736Z,7.17
2019-04-20T14:26:38.596Z,6.25
2019-04-20T14:29:05.545Z,7.17
2019-04-20T14:31:34.009Z,8.13
2019-04-20T14:34:04.648Z,8.23
2019-04-20T14:36:32.942Z,5.83
2019-04-20T14:39:02.445Z,7.58
2019-04-20T14:41:30.730Z,7.60
2019-04-20T14:43:58.657Z,8.70
2019-04-20T14:46:27.888Z,7.50
2019-04-20T14:48:56.680Z,7.95
2019-04-20T14:51:25.803Z,10.65
2019-04-20T14:53:54.119Z,8.33
2019-04-20T14:56:23.454Z,7.33
2019-04-20T14:58:57.635Z,7.60
2019-04-20T15:01:34.704Z,7.22
2019-04-20T15:04:09.331Z,10.55
2019-04-20T15:06:36.151Z,16.25
2019-04-20T15:09:06.457Z,8.28
2019-04-20T15:11:40.741Z,8.88
2019-04-20T15:14:08.866Z,7.58
2019-04-20T15:16:38.360Z,11.25
2019-04-20T15:19:41.462Z,6.95
2019-04-20T15:22:27.381Z,7.85
2019-04-20T15:24:55.726Z,7.25
2019-04-20T15:27:24.630Z,8.25
2019-04-20T15:29:53.995Z,6.65
2019-04-20T15:32:22.908Z,9.50
2019-04-20T15:34:51.040Z,7.72
2019-04-20T15:37:20.209Z,11.48
2019-04-20T15:39:49.024Z,7.45
2019-04-20T15:42:17.423Z,7.45
2019-04-20T15:44:45.625Z,8.98
2019-04-20T15:47:13.478Z,11.28
2019-04-20T15:49:42.041Z,9.85
2019-04-20T15:52:12.502Z,7.45
2019-04-20T15:54:41.030Z,8.88
2019-04-20T15:57:16.524Z,9.73
2019-04-20T15:59:40.450Z,9.25
2019-04-20T16:02:23.313Z,9.45
2019-04-20T16:05:16.559Z,7.92
2019-04-20T16:07:51.109Z,7.58
2019-04-20T16:10:15.270Z,8.08
2019-04-20T16:12:44.808Z,9.75
2019-04-20T16:15:13.667Z,9.18
2019-04-20T16:17:45.939Z,7.83
2019-04-20T16:20:17.898Z,6.70
2019-04-20T16:22:42.684Z,8.10
2019-04-20T16:25:23.481Z,8.13
2019-04-20T16:27:51.868Z,7.70
2019-04-20T16:30:20.159Z,10.57
2019-04-20T16:32:48.387Z,10.00
2019-04-20T16:35:16.657Z,10.20
2019-04-20T16:37:44.949Z,8.03
2019-04-20T16:40:13.763Z,9.10
2019-04-20T16:42:42.733Z,8.93
2019-04-20T16:45:11.725Z,9.67
2019-04-20T16:47:39.922Z,8.07
2019-04-20T16:50:09.176Z,13.00
2019-04-20T16:52:38.896Z,7.83
2019-04-20T16:55:08.240Z,7.67
2019-04-20T16:57:39.673Z,9.93
2019-04-20T17:00:07.563Z,7.17
2019-04-20T17:02:36.215Z,11.50
2019-04-20T17:05:05.206Z,10.03
2019-04-20T17:07:37.282Z,8.90
2019-04-20T17:10:07.510Z,10.20
2019-04-20T17:12:35.904Z,10.90
2019-04-20T17:15:05.515Z,8.37
2019-04-20T17:17:33.897Z,10.03
2019-04-20T17:20:02.153Z,10.30
2019-04-20T17:22:30.068Z,10.33
2019-04-20T17:24:58.407Z,13.23
2019-04-20T17:27:46.827Z,12.73
2019-04-20T17:30:39.982Z,9.97
2019-04-20T17:33:24.052Z,8.37
2019-04-20T17:35:57.265Z,10.53
2019-04-20T17:38:22.329Z,11.70
2019-04-20T17:41:06.378Z,8.47
2019-04-20T17:43:30.611Z,9.23
2019-04-20T17:45:58.216Z,8.47
2019-04-20T17:48:33.300Z,7.37
2019-04-20T17:51:10.865Z,7.47
2019-04-20T17:53:47.390Z,9.20
2019-04-20T17:56:10.484Z,10.43
2019-04-20T17:58:41.338Z,11.77
2019-04-20T18:01:52.812Z,9.87
2019-04-20T18:04:44.329Z,7.93
2019-04-20T18:06:56.009Z,7.17
2019-04-20T18:09:34.574Z,8.20
2019-04-20T18:11:47.218Z,9.77
2019-04-20T18:14:35.785Z,7.90
2019-04-20T18:17:06.642Z,10.33
2019-04-20T18:19:24.800Z,13.50
2019-04-20T18:21:58.243Z,8.77
2019-04-20T18:24:50.994Z,8.10
2019-04-20T18:27:18.760Z,8.13
2019-04-20T18:29:49.107Z,11.33
2019-04-20T18:32:09.361Z,10.63
2019-04-20T18:35:06.648Z,9.17
2019-04-20T18:37:34.432Z,7.83
2019-04-20T18:40:10.754Z,11.03
2019-04-20T18:42:39.843Z,9.67
2019-04-20T18:45:21.664Z,9.37
2019-04-20T18:47:59.232Z,10.20
2019-04-20T18:50:16.528Z,9.80
2019-04-20T18:52:39.935Z,10.57
2019-04-20T18:55:17.383Z,12.20
2019-04-20T18:57:41.609Z,8.40
2019-04-20T19:00:17.999Z,13.47
2019-04-20T19:02:46.854Z,9.83
2019-04-20T19:05:13.617Z,12.13
2019-04-20T19:07:52.593Z,10.40
2019-04-20T19:10:18.621Z,8.83
2019-04-20T19:12:52.290Z,14.10
2019-04-20T19:15:53.370Z,13.43
2019-04-20T19:18:20.904Z,12.43
2019-04-20T19:20:41.359Z,12.77
2019-04-20T19:23:10.325Z,13.80
2019-04-20T19:25:40.936Z,15.20
2019-04-20T19:28:08.899Z,17.60
2019-04-20T19:30:46.828Z,17.60
2019-04-20T19:33:27.577Z,15.57
2019-04-20T19:35:52.239Z,15.50
2019-04-20T19:38:19.894Z,10.67
2019-04-20T19:40:53.863Z,10.53
2019-04-20T19:43:22.646Z,8.37
2019-04-20T19:46:24.419Z,10.13
2019-04-20T19:48:27.899Z,9.67
2019-04-20T19:51:08.377Z,7.40
2019-04-20T19:53:36.704Z,6.83
2019-04-20T19:55:58.851Z,9.43
2019-04-20T19:58:30.349Z,7.70
2019-04-20T20:00:51.358Z,9.03
2019-04-20T20:03:17.619Z,8.30
2019-04-20T20:05:48.324Z,12.20
2019-04-20T20:08:21.016Z,12.37
2019-04-20T20:10:46.389Z,15.77
2019-04-20T20:13:15.054Z,14.43
2019-04-20T20:15:45.092Z,14.07
2019-04-20T20:18:30.877Z,14.60
2019-04-20T20:21:00.201Z,16.83
2019-04-20T20:23:14.359Z,14.23
2019-04-20T20:25:45.914Z,11.80
2019-04-20T20:28:25.875Z,15.63
2019-04-20T20:30:57.760Z,20.93
2019-04-20T20:33:29.359Z,17.17
2019-04-20T20:35:53.542Z,14.20
2019-04-20T20:38:22.416Z,11.83
2019-04-20T20:41:00.076Z,15.33
2019-04-20T20:43:28.162Z,16.93
2019-04-20T20:46:01.076Z,12.00
2019-04-20T20:48:29.683Z,10.73
2019-04-20T20:51:06.458Z,15.00
2019-04-20T20:53:36.346Z,12.03
2019-04-20T20:56:01.921Z,15.33
2019-04-20T20:58:33.684Z,18.57
2019-04-20T21:00:57.556Z,22.17
2019-04-20T21:03:29.225Z,20.47
2019-04-20T21:05:51.562Z,18.93
2019-04-20T21:08:21.631Z,15.67
2019-04-20T21:10:51.085Z,18.80
2019-04-20T21:13:21.285Z,12.97
2019-04-20T21:15:57.553Z,13.50
2019-04-20T21:18:43.647Z,11.27
2019-04-20T21:21:06.523Z,16.47
2019-04-20T21:23:34.169Z,12.77
2019-04-20T21:26:07.121Z,17.17
2019-04-20T21:28:40.520Z,15.97
2019-04-20T21:31:15.988Z,17.27
2019-04-20T21:33:40.852Z,10.87
2019-04-20T21:36:14.581Z,13.37
2019-04-20T21:38:42.740Z,10.90
2019-04-20T21:41:15.026Z,12.23
2019-04-20T21:43:44.442Z,15.70
2019-04-20T21:46:13.454Z,11.57
2019-04-20T21:48:55.923Z,15.03
2019-04-20T21:51:27.031Z,15.93
2019-04-20T21:53:42.446Z,13.00
2019-04-20T21:56:12.225Z,9.67
2019-04-20T21:58:48.156Z,10.80
2019-04-20T22:01:18.576Z,11.93
2019-04-20T22:03:40.583Z,11.53
2019-04-20T22:06:09.012Z,17.40
2019-04-20T22:08:40.432Z,10.93
2019-04-20T22:11:08.130Z,13.90
2019-04-20T22:13:39.863Z,9.80
2019-04-20T22:16:10.604Z,10.93
2019-04-20T22:18:48.565Z,13.80
2019-04-20T22:21:17.455Z,14.33
2019-04-20T22:23:58.278Z,12.73
2019-04-20T22:26:18.785Z,10.77
2019-04-20T22:28:38.293Z,15.43
2019-04-20T22:31:06.678Z,9.70
2019-04-20T22:33:39.807Z,11.10
2019-04-20T22:36:07.849Z,9.47
2019-04-20T22:38:58.110Z,9.13
2019-04-20T22:41:27.734Z,12.10
2019-04-20T22:43:55.041Z,14.77
2019-04-20T22:46:29.057Z,12.10
2019-04-20T22:49:14.375Z,9.57
2019-04-20T22:51:39.962Z,11.90
2019-04-20T22:54:12.287Z,11.57
2019-04-20T22:56:42.053Z,8.90
2019-04-20T22:59:02.219Z,8.43
2019-04-20T23:01:32.147Z,10.97
2019-04-20T23:03:54.893Z,10.40
2019-04-20T23:06:25.330Z,12.40
2019-04-20T23:08:59.515Z,10.27
2019-04-20T23:11:28.474Z,9.60
2019-04-20T23:13:53.834Z,11.83
2019-04-20T23:16:21.440Z,9.83
2019-04-20T23:18:49.944Z,10.50
2019-04-20T23:21:19.677Z,10.50
2019-04-20T23:23:52.541Z,9.57
2019-04-20T23:26:27.869Z,10.73
2019-04-20T23:28:53.600Z,7.90
2019-04-20T23:31:22.292Z,10.37
2019-04-20T23:33:49.894Z,12.17
2019-04-20T23:36:30.359Z,9.70
2019-04-20T23:38:54.634Z,9.40
2019-04-20T23:41:20.071Z,16.53
2019-04-20T23:44:18.955Z,16.63
2019-04-20T23:47:18.370Z,21.50
2019-04-20T23:50:05.673Z,20.00
2019-04-20T23:52:42.628Z,16.37
2019-04-20T23:54:58.194Z,15.57
2019-04-20T23:57:21.846Z,12.80
2019-04-20T23:59:51.537Z,14.83
